Time;durP1;ratioP1;P1;durP2;ratioP2;P2;SDS_P1;SDS_P2;PMS_P1;PMS_P2;Temp;Humidity;BMP_temperature;BMP_pressure;BME280_temperature;BME280_humidity;BME280_pressure;Samples;Min_cycle;Max_cycle;Signal;HPM_P1;HPM_P2
2024/01/10 00:07:26;;;;;;;33.2;18.9;;;;;;;-14.55;73.4;100390;;;;
2024/01/10 00:18:25;;;;;;;33.2;18.9;;;;;;;-14.5;73.34;100390;;;;
2024/01/10 00:29:25;;;;;;;46.5;25.2;;;;;;;-14.81;72.45;100385;;;;
2024/01/10 00:40:25;;;;;;;46.5;25.2;;;;;;;-14.76;71.34;100388.33333333;;;;
2024/01/10 00:51:25;;;;;;;71.6;34.3;;;;;;;-14.94;71.06;100386.66666667;;;;
2024/01/10 01:01:26;;;;;;;71.6;34.3;;;;;;;-15.26;70.48;100398.33333333;;;;
2024/01/10 01:12:25;;;;;;;71.6;34.3;;;;;;;-15.59;70.91;100396.66666667;;;;
2024/01/10 01:22:25;;;;;;;57.7;36;;;;;;;-15.69;72.14;100408.33333333;;;;
2024/01/10 01:33:25;;;;;;;57.7;36;;;;;;;-15.63;71.79;100403.33333333;;;;
2024/01/10 01:43:26;;;;;;;57.7;36;;;;;;;-15.6;71.45;100386.66666667;;;;
2024/01/10 01:53:26;;;;;;;74.5;40.2;;;;;;;-15.61;70.84;100361.66666667;;;;
2024/01/10 02:03:26;;;;;;;74.5;40.2;;;;;;;-15.52;72.69;100366.66666667;;;;
2024/01/10 02:14:26;;;;;;;74.5;40.2;;;;;;;-15.72;71.97;100368.33333333;;;;
2024/01/10 02:25:25;;;;;;;58.4;32.3;;;;;;;-15.54;72.47;100368.33333333;;;;
2024/01/10 02:36:25;;;;;;;58.4;32.3;;;;;;;-15.43;71.99;100363.33333333;;;;
2024/01/10 02:46:27;;;;;;;58.4;32.3;;;;;;;-15.48;71.55;100351.66666667;;;;
2024/01/10 02:57:25;;;;;;;58.4;30.9;;;;;;;-15.35;71.53;100338.33333333;;;;
2024/01/10 03:07:25;;;;;;;58.4;30.9;;;;;;;-15.33;71.19;100333.33333333;;;;
2024/01/10 03:18:25;;;;;;;58.4;30.9;;;;;;;-15.82;69.83;100323.33333333;;;;
2024/01/10 03:28:25;;;;;;;60.9;31.5;;;;;;;-15.58;70.86;100308.33333333;;;;
2024/01/10 03:39:25;;;;;;;60.9;31.5;;;;;;;-15.61;71.1;100305;;;;
2024/01/10 03:49:25;;;;;;;55.2;29.6;;;;;;;-15.71;70.76;100306.66666667;;;;
2024/01/10 03:59:26;;;;;;;55.2;29.6;;;;;;;-15.69;70.84;100303.33333333;;;;
2024/01/10 04:10:25;;;;;;;55.2;29.6;;;;;;;-15.79;70.77;100296.66666667;;;;
2024/01/10 04:20:25;;;;;;;48;25.1;;;;;;;-15.77;70.33;100291.66666667;;;;
2024/01/10 04:30:26;;;;;;;48;25.1;;;;;;;-15.81;70.11;100296.66666667;;;;
2024/01/10 04:41:25;;;;;;;48;25.1;;;;;;;-15.77;69.97;100296.66666667;;;;
2024/01/10 04:51:25;;;;;;;47;27.1;;;;;;;-15.94;69.99;100306.66666667;;;;
2024/01/10 05:01:26;;;;;;;47;27.1;;;;;;;-16.09;70.01;100295;;;;
2024/01/10 05:12:25;;;;;;;47;27.1;;;;;;;-15.97;70.7;100303.33333333;;;;
2024/01/10 05:23:26;;;;;;;44.7;25.5;;;;;;;-15.96;70.17;100311.66666667;;;;
2024/01/10 05:34:25;;;;;;;44.7;25.5;;;;;;;-15.99;70.15;100316.66666667;;;;
2024/01/10 05:45:26;;;;;;;44.7;25.5;;;;;;;-15.91;70.38;100313.33333333;;;;
2024/01/10 05:56:27;;;;;;;45.7;26.2;;;;;;;-15.93;69.94;100315;;;;
2024/01/10 06:07:26;;;;;;;45.7;26.2;;;;;;;-15.9;70.54;100328.33333333;;;;
2024/01/10 06:18:25;;;;;;;53.8;28.5;;;;;;;-15.84;71.04;100323.33333333;;;;
2024/01/10 06:29:26;;;;;;;53.8;28.5;;;;;;;-15.56;70.63;100328.33333333;;;;
2024/01/10 06:39:27;;;;;;;53.8;28.5;;;;;;;-15.55;70.55;100338.33333333;;;;
2024/01/10 06:49:27;;;;;;;68;37;;;;;;;-15.54;70.25;100333.33333333;;;;
2024/01/10 06:59:26;;;;;;;68;37;;;;;;;-15.42;70.46;100330;;;;
2024/01/10 07:10:27;;;;;;;68;37;;;;;;;-15.15;70.8;100320;;;;
2024/01/10 07:21:26;;;;;;;75;39.9;;;;;;;-14.81;70.17;100320;;;;
2024/01/10 07:31:28;;;;;;;75;39.9;;;;;;;-14.54;70.42;100313.33333333;;;;
2024/01/10 07:41:26;;;;;;;75;39.9;;;;;;;-14.08;70.18;100313.33333333;;;;
2024/01/10 07:52:26;;;;;;;71.6;39.6;;;;;;;-13.58;70.2;100306.66666667;;;;
2024/01/10 08:02:26;;;;;;;71.6;39.6;;;;;;;-13.62;68.62;100310;;;;
2024/01/10 08:13:26;;;;;;;71.6;39.6;;;;;;;-14.29;70.52;100318.33333333;;;;
2024/01/10 08:24:26;;;;;;;103.5;52.5;;;;;;;-13.29;70.02;100320;;;;
2024/01/10 08:35:26;;;;;;;103.5;52.5;;;;;;;-12.82;70.13;100323.33333333;;;;
2024/01/10 08:46:26;;;;;;;103.5;52.5;;;;;;;-12.61;68.24;100326.66666667;;;;
2024/01/10 08:57:27;;;;;;;93;53.4;;;;;;;-11.74;70.47;100325;;;;
2024/01/10 09:07:27;;;;;;;93;53.4;;;;;;;-11.06;71.77;100318.33333333;;;;
2024/01/10 09:18:26;;;;;;;96.6;51;;;;;;;-10.01;71.47;100301.66666667;;;;
2024/01/10 09:28:26;;;;;;;96.6;51;;;;;;;-9.2;70.04;100298.33333333;;;;
2024/01/10 09:38:26;;;;;;;96.6;51;;;;;;;-8.62;69.82;100288.33333333;;;;
2024/01/10 09:48:26;;;;;;;107;55.5;;;;;;;-8.31;71.02;100278.33333333;;;;
2024/01/10 09:58:26;;;;;;;107;55.5;;;;;;;-7.61;69.97;100268.33333333;;;;
2024/01/10 10:09:26;;;;;;;107;55.5;;;;;;;-6.89;69.68;100258.33333333;;;;
2024/01/10 10:20:32;;;;;;;121;66.3;;;;;;;-6.48;68.2;100253.33333333;;;;
2024/01/10 10:31:26;;;;;;;121;66.3;;;;;;;-6.09;67.76;100246.66666667;;;;
2024/01/10 10:42:30;;;;;;;121;66.3;;;;;;;-5.49;67.11;100246.66666667;;;;
2024/01/10 10:53:30;;;;;;;140.9;77.2;;;;;;;-5.2;65.9;100236.66666667;;;;
2024/01/10 11:04:26;;;;;;;140.9;77.2;;;;;;;-4.46;64.95;100216.66666667;;;;
2024/01/10 11:14:27;;;;;;;140.9;77.2;;;;;;;-4.38;64.59;100215;;;;
2024/01/10 11:25:29;;;;;;;152.4;89.7;;;;;;;-4.15;64.52;100208.33333333;;;;
2024/01/10 11:35:26;;;;;;;152.4;89.7;;;;;;;-4.42;64.28;100218.33333333;;;;
2024/01/10 11:46:26;;;;;;;152.4;89.7;;;;;;;-4.07;64.39;100218.33333333;;;;
2024/01/10 11:56:26;;;;;;;198.6;111.8;;;;;;;-4.25;62.69;100215;;;;
2024/01/10 12:06:26;;;;;;;198.6;111.8;;;;;;;-3.41;64.02;100210;;;;
2024/01/10 12:17:26;;;;;;;149.3;84.8;;;;;;;-2.9;64.11;100206.66666667;;;;
2024/01/10 12:28:26;;;;;;;149.3;84.8;;;;;;;-2.63;62.72;100198.33333333;;;;
2024/01/10 12:39:31;;;;;;;149.3;84.8;;;;;;;-2.69;59.95;100196.66666667;;;;
2024/01/10 12:50:26;;;;;;;143.9;82.9;;;;;;;-2.81;63.52;100170;;;;
2024/01/10 13:01:26;;;;;;;143.9;82.9;;;;;;;-2.89;63.77;100156.66666667;;;;
2024/01/10 13:12:26;;;;;;;143.9;82.9;;;;;;;-2.37;64.09;100145;;;;
2024/01/10 13:22:26;;;;;;;127.2;71.4;;;;;;;-2.11;64.2;100141.66666667;;;;
2024/01/10 13:33:26;;;;;;;127.2;71.4;;;;;;;-2.2;63.26;100135;;;;
2024/01/10 13:43:26;;;;;;;127.2;71.4;;;;;;;-2.57;64.19;100130;;;;
2024/01/10 13:53:26;;;;;;;134.7;74.8;;;;;;;-2.78;64.05;100135;;;;
2024/01/10 14:03:26;;;;;;;134.7;74.8;;;;;;;-3.22;64.53;100125;;;;
2024/01/10 14:14:26;;;;;;;134.7;74.8;;;;;;;-3.88;65.38;100115;;;;
2024/01/10 14:25:26;;;;;;;144.3;83.9;;;;;;;-4.56;67.23;100113.33333333;;;;
2024/01/10 14:35:26;;;;;;;144.3;83.9;;;;;;;-5.12;67.59;100110;;;;
2024/01/10 14:46:28;;;;;;;87.4;49.3;;;;;;;-5.57;68.8;100114;;;;
2024/01/10 14:57:26;;;;;;;87.4;49.3;;;;;;;-6;69.94;100106.66666667;;;;
2024/01/10 15:08:26;;;;;;;87.4;49.3;;;;;;;-6.38;71;100100;;;;
2024/01/10 15:18:26;;;;;;;98.9;56.7;;;;;;;-6.72;72.49;100098;;;;
2024/01/10 15:29:26;;;;;;;98.9;56.7;;;;;;;-7.13;74.64;100092;;;;
2024/01/10 15:39:26;;;;;;;98.9;56.7;;;;;;;-7.25;74.56;100084;;;;
2024/01/10 15:50:26;;;;;;;119.5;64.7;;;;;;;-7.55;76.62;100085;;;;
2024/01/10 16:01:26;;;;;;;119.5;64.7;;;;;;;-7.73;76.97;100056;;;;
2024/01/10 16:12:26;;;;;;;119.5;64.7;;;;;;;-7.92;76.57;100080;;;;
2024/01/10 16:22:26;;;;;;;107.9;62.1;;;;;;;-8.2;77.51;100080;;;;
2024/01/10 16:32:26;;;;;;;107.9;62.1;;;;;;;-8.38;78.46;100085;;;;
2024/01/10 16:43:26;;;;;;;107.9;62.1;;;;;;;-8.48;78.57;100080;;;;
2024/01/10 16:53:26;;;;;;;89.1;49.1;;;;;;;-8.66;79.32;100081.66666667;;;;
2024/01/10 17:04:26;;;;;;;89.1;49.1;;;;;;;-8.67;80.85;100076.66666667;;;;
2024/01/10 17:14:26;;;;;;;89.1;49.1;;;;;;;-8.72;80.15;100068.33333333;;;;
2024/01/10 17:25:27;;;;;;;107.7;58.2;;;;;;;-8.83;79.79;100065;;;;
2024/01/10 17:35:26;;;;;;;107.7;58.2;;;;;;;-8.92;79.29;100058.33333333;;;;
2024/01/10 17:45:26;;;;;;;118.6;67.2;;;;;;;-9.05;78.93;100045;;;;
2024/01/10 17:55:26;;;;;;;118.6;67.2;;;;;;;-9.16;79.32;100046.66666667;;;;
2024/01/10 18:06:26;;;;;;;118.6;67.2;;;;;;;-9.25;79.85;100030;;;;
2024/01/10 18:16:26;;;;;;;101.6;53.2;;;;;;;-9.39;79.69;100016.66666667;;;;
2024/01/10 18:27:26;;;;;;;101.6;53.2;;;;;;;-9.32;79.55;100001.66666667;;;;
2024/01/10 18:37:26;;;;;;;101.6;53.2;;;;;;;-9.43;79.46;99996.666666667;;;;
2024/01/10 18:48:26;;;;;;;94.4;52.8;;;;;;;-9.47;78.99;99985;;;;
2024/01/10 18:58:26;;;;;;;94.4;52.8;;;;;;;-9.69;77.84;99983.333333333;;;;
2024/01/10 19:08:26;;;;;;;94.4;52.8;;;;;;;-9.82;78.43;99958.333333333;;;;
2024/01/10 19:18:26;;;;;;;106.5;60.2;;;;;;;-9.87;78.41;99950;;;;
2024/01/10 19:29:26;;;;;;;106.5;60.2;;;;;;;-10;78.01;99958.333333333;;;;
2024/01/10 19:39:26;;;;;;;106.5;60.2;;;;;;;-10.1;78.21;99951.666666667;;;;
2024/01/10 19:50:27;;;;;;;107.8;61.1;;;;;;;-10.14;78.12;99946.666666667;;;;
2024/01/10 20:00:28;;;;;;;107.8;61.1;;;;;;;-10.09;78.24;99955;;;;
2024/01/10 20:10:26;;;;;;;107.8;61.1;;;;;;;-10.23;78.19;99956.666666667;;;;
2024/01/10 20:21:26;;;;;;;110.6;55.4;;;;;;;-10.23;78.27;99961.666666667;;;;
2024/01/10 20:32:26;;;;;;;110.6;55.4;;;;;;;-10.37;78.05;99960;;;;
2024/01/10 20:43:26;;;;;;;110.6;55.4;;;;;;;-10.52;77.97;99956.666666667;;;;
2024/01/10 20:54:26;;;;;;;100.9;57.9;;;;;;;-10.51;78.01;99956.666666667;;;;
2024/01/10 21:04:26;;;;;;;100.9;57.9;;;;;;;-10.45;78.71;99961.666666667;;;;
2024/01/10 21:15:26;;;;;;;89.6;50.4;;;;;;;-10.45;79.33;99965;;;;
2024/01/10 21:25:26;;;;;;;89.6;50.4;;;;;;;-10.33;81.25;99958.333333333;;;;
2024/01/10 21:36:26;;;;;;;89.6;50.4;;;;;;;-9.84;82.91;99941.666666667;;;;
2024/01/10 21:46:26;;;;;;;69.7;38.1;;;;;;;-9.6;82.32;99953.333333333;;;;
2024/01/10 21:56:26;;;;;;;69.7;38.1;;;;;;;-9.67;81.08;99948.333333333;;;;
2024/01/10 22:07:26;;;;;;;69.7;38.1;;;;;;;-9.6;80.77;99936.666666667;;;;
2024/01/10 22:17:26;;;;;;;75.4;40.8;;;;;;;-9.54;81.6;99928.333333333;;;;
2024/01/10 22:28:26;;;;;;;75.4;40.8;;;;;;;-9.54;81.27;99908.333333333;;;;
2024/01/10 22:38:26;;;;;;;75.4;40.8;;;;;;;-9.56;81.24;99905;;;;
2024/01/10 22:48:27;;;;;;;57.1;34.9;;;;;;;-9.49;81.45;99896.666666667;;;;
2024/01/10 22:58:26;;;;;;;57.1;34.9;;;;;;;-9.33;81.65;99881.666666667;;;;
2024/01/10 23:09:26;;;;;;;57.1;34.9;;;;;;;-9.57;79.45;99886.666666667;;;;
2024/01/10 23:20:26;;;;;;;79.1;41.4;;;;;;;-9.77;78.47;99866.666666667;;;;
2024/01/10 23:31:26;;;;;;;79.1;41.4;;;;;;;-9.92;78.6;99860;;;;
2024/01/10 23:41:26;;;;;;;79.1;41.4;;;;;;;-9.87;79.4;99848.333333333;;;;
2024/01/10 23:51:26;;;;;;;64.6;36.9;;;;;;;-9.54;81.87;99840;;;;
